Time;durP1;ratioP1;P1;durP2;ratioP2;P2;SDS_P1;SDS_P2;PMS_P1;PMS_P2;Temp;Humidity;BMP_temperature;BMP_pressure;BME280_temperature;BME280_humidity;BME280_pressure;Samples;Min_cycle;Max_cycle;Signal;HPM_P1;HPM_P2
2023/05/29 00:01:31;;;;;;;8.77;2.03;;;36.90;27.40;;;;;;4908559;29;20031;-58
2023/05/29 00:03:57;;;;;;;8.43;2.60;;;36.90;27.10;;;;;;4909023;29;20028;-60
2023/05/29 00:06:24;;;;;;;14.02;2.47;;;36.80;26.80;;;;;;4908705;29;20070;-57
2023/05/29 00:08:51;;;;;;;6.80;1.92;;;36.70;27.20;;;;;;4908008;29;20132;-58
2023/05/29 00:11:17;;;;;;;7.20;2.38;;;36.80;26.60;;;;;;4908121;29;20021;-59
2023/05/29 00:13:44;;;;;;;10.63;2.22;;;36.70;26.90;;;;;;4906702;29;20421;-59
2023/05/29 00:16:10;;;;;;;9.50;2.45;;;36.70;27.20;;;;;;4910049;29;20052;-60
2023/05/29 00:18:44;;;;;;;5.75;2.25;;;36.70;26.70;;;;;;4906947;29;20040;-60
2023/05/29 00:21:12;;;;;;;5.95;2.25;;;36.60;26.70;;;;;;4905903;29;20035;-59
2023/05/29 00:23:39;;;;;;;7.68;3.17;;;36.60;27.00;;;;;;4906565;29;20123;-61
2023/05/29 00:26:05;;;;;;;11.85;4.50;;;36.60;26.90;;;;;;4906682;29;20039;-61
2023/05/29 00:28:32;;;;;;;15.98;4.63;;;36.60;26.80;;;;;;4905223;29;20083;-60
2023/05/29 00:30:58;;;;;;;6.18;2.45;;;36.60;26.90;;;;;;4904624;29;20492;-61
2023/05/29 00:33:25;;;;;;;26.10;10.55;;;36.60;27.00;;;;;;4904705;29;20036;-62
2023/05/29 00:35:51;;;;;;;15.40;7.65;;;36.50;26.60;;;;;;4903094;29;20028;-61
2023/05/29 00:38:18;;;;;;;5.68;1.73;;;36.40;27.00;;;;;;4905172;29;20075;-62
2023/05/29 00:40:44;;;;;;;8.32;3.22;;;36.30;27.00;;;;;;4902489;29;20489;-61
2023/05/29 00:43:11;;;;;;;9.98;3.35;;;36.30;26.90;;;;;;4906393;29;20137;-60
2023/05/29 00:45:37;;;;;;;7.65;1.80;;;36.40;27.40;;;;;;4905625;29;20056;-62
2023/05/29 00:48:05;;;;;;;5.57;2.42;;;36.30;26.90;;;;;;4905628;29;20094;-61
2023/05/29 00:50:32;;;;;;;9.60;2.38;;;36.20;26.60;;;;;;4908899;29;20035;-62
2023/05/29 00:53:01;;;;;;;12.30;2.90;;;36.10;26.50;;;;;;4905130;29;20059;-61
2023/05/29 00:55:29;;;;;;;7.28;1.73;;;36.20;25.70;;;;;;4905300;29;20460;-62
2023/05/29 00:57:56;;;;;;;9.90;2.03;;;36.10;25.40;;;;;;4907862;29;20058;-60
2023/05/29 01:00:23;;;;;;;12.38;1.98;;;36.00;25.30;;;;;;4910342;29;20042;-62
2023/05/29 01:02:52;;;;;;;25.77;2.33;;;35.80;25.10;;;;;;4907056;29;20521;-61
2023/05/29 01:05:19;;;;;;;10.75;2.42;;;35.80;24.80;;;;;;4906223;29;20078;-61
2023/05/29 01:07:45;;;;;;;10.88;2.67;;;35.60;25.30;;;;;;4905126;29;20060;-61
2023/05/29 01:10:12;;;;;;;19.73;3.38;;;35.60;25.10;;;;;;4906979;29;20451;-61
2023/05/29 01:12:42;;;;;;;30.48;10.93;;;35.40;27.20;;;;;;4904193;29;20095;-61
2023/05/29 01:15:18;;;;;;;51.28;12.60;;;35.40;27.50;;;;;;4906438;29;20048;-60
2023/05/29 01:18:01;;;;;;;37.65;10.52;;;35.40;30.50;;;;;;4906413;29;20038;-60
2023/05/29 01:21:23;;;;;;;24.75;3.33;;;35.30;31.50;;;;;;4904072;29;20050;-60
2023/05/29 01:24:02;;;;;;;36.97;4.53;;;35.20;31.70;;;;;;4895762;29;20208;-61
2023/05/29 01:26:48;;;;;;;30.35;4.03;;;35.10;31.10;;;;;;4904323;29;20061;-61
2023/05/29 01:29:17;;;;;;;30.27;3.10;;;35.10;31.20;;;;;;4912033;29;20121;-63
2023/05/29 01:31:45;;;;;;;22.45;3.35;;;35.00;30.90;;;;;;4910322;29;20047;-64
2023/05/29 01:34:12;;;;;;;23.33;3.30;;;34.80;31.10;;;;;;4908494;29;20072;-64
2023/05/29 01:36:38;;;;;;;27.75;3.95;;;34.70;31.50;;;;;;4909264;29;20132;-64
2023/05/29 01:39:05;;;;;;;22.52;2.67;;;34.70;31.90;;;;;;4906869;29;20043;-62
2023/05/29 01:41:33;;;;;;;24.15;2.88;;;34.70;31.00;;;;;;4906583;29;20038;-63
2023/05/29 01:44:01;;;;;;;31.92;3.63;;;34.80;31.20;;;;;;4908174;29;20062;-63
2023/05/29 01:46:27;;;;;;;31.52;3.33;;;35.00;30.90;;;;;;4907377;29;20452;-62
2023/05/29 01:48:57;;;;;;;22.08;2.78;;;35.30;31.50;;;;;;4907364;29;20096;-62
2023/05/29 01:51:23;;;;;;;33.40;3.88;;;35.10;32.20;;;;;;4909422;29;20134;-63
2023/05/29 01:53:50;;;;;;;29.15;3.40;;;34.80;34.10;;;;;;4904289;29;20118;-62
2023/05/29 01:56:16;;;;;;;25.88;4.03;;;34.40;35.50;;;;;;4908590;29;20177;-62
2023/05/29 01:58:44;;;;;;;33.33;3.33;;;34.10;35.80;;;;;;4910637;29;20081;-63
2023/05/29 02:01:11;;;;;;;27.20;3.58;;;33.80;36.80;;;;;;4907417;29;20053;-61
2023/05/29 02:03:38;;;;;;;23.75;4.10;;;33.70;38.00;;;;;;4910293;29;20041;-65
2023/05/29 02:06:04;;;;;;;20.42;3.38;;;33.50;38.80;;;;;;4905988;29;20057;-60
2023/05/29 02:08:31;;;;;;;19.73;3.38;;;33.40;39.10;;;;;;4905074;29;20064;-62
2023/05/29 02:10:57;;;;;;;21.25;3.20;;;33.20;38.70;;;;;;4905685;29;20047;-61
2023/05/29 02:13:23;;;;;;;17.98;3.35;;;33.10;38.80;;;;;;4911130;29;20055;-62
2023/05/29 02:15:50;;;;;;;25.42;3.03;;;33.00;38.30;;;;;;4907564;29;20042;-62
2023/05/29 02:18:17;;;;;;;23.48;3.17;;;32.80;37.90;;;;;;4910391;29;20412;-62
2023/05/29 02:20:43;;;;;;;12.15;2.53;;;32.70;37.10;;;;;;4909344;29;20089;-63
2023/05/29 02:23:10;;;;;;;27.80;3.35;;;32.60;36.80;;;;;;4912888;29;20167;-61
2023/05/29 02:25:36;;;;;;;23.23;2.58;;;32.50;36.70;;;;;;4908843;29;20069;-59
2023/05/29 02:28:03;;;;;;;16.52;2.90;;;32.50;37.30;;;;;;4909682;29;20089;-61
2023/05/29 02:30:30;;;;;;;17.33;2.70;;;32.30;37.70;;;;;;4912830;29;20082;-61
2023/05/29 02:32:57;;;;;;;48.70;4.70;;;32.20;38.40;;;;;;4909892;29;20059;-60
2023/05/29 02:35:23;;;;;;;29.15;2.95;;;32.20;38.50;;;;;;4909916;29;20054;-62
2023/05/29 02:37:50;;;;;;;35.33;3.58;;;32.10;38.80;;;;;;4909357;29;20825;-62
2023/05/29 02:40:17;;;;;;;24.48;3.03;;;32.00;39.80;;;;;;4905943;29;20190;-61
2023/05/29 02:42:44;;;;;;;29.90;3.60;;;31.90;39.70;;;;;;4909617;29;20083;-62
2023/05/29 02:45:11;;;;;;;20.27;2.50;;;31.80;39.20;;;;;;4908214;29;20057;-60
2023/05/29 02:47:38;;;;;;;15.07;2.35;;;31.80;38.80;;;;;;4910341;29;20474;-64
2023/05/29 02:50:05;;;;;;;17.83;2.58;;;31.70;37.80;;;;;;4908365;29;20118;-66
2023/05/29 02:52:34;;;;;;;23.27;3.05;;;31.60;37.60;;;;;;4911283;29;20066;-62
2023/05/29 02:55:01;;;;;;;22.65;2.55;;;31.50;37.30;;;;;;4912184;29;20062;-62
2023/05/29 02:57:28;;;;;;;20.83;2.15;;;31.50;36.50;;;;;;4910743;29;20070;-61
2023/05/29 02:59:54;;;;;;;24.42;3.65;;;31.40;36.20;;;;;;4914656;29;20057;-62
2023/05/29 03:02:21;;;;;;;22.17;2.85;;;31.30;36.00;;;;;;4908290;29;20105;-60
2023/05/29 03:04:50;;;;;;;46.30;3.60;;;31.20;36.20;;;;;;4907982;29;20052;-61
2023/05/29 03:07:17;;;;;;;24.30;3.63;;;31.20;36.20;;;;;;4909032;29;20061;-61
2023/05/29 03:09:43;;;;;;;26.40;3.22;;;31.10;36.40;;;;;;4907482;29;20451;-61
2023/05/29 03:12:10;;;;;;;27.05;3.85;;;31.10;36.70;;;;;;4908283;29;20135;-58
2023/05/29 03:14:37;;;;;;;12.68;3.15;;;31.00;36.90;;;;;;4907972;29;20083;-61
2023/05/29 03:17:09;;;;;;;16.65;3.65;;;30.90;37.30;;;;;;4912824;29;20066;-62
2023/05/29 03:19:37;;;;;;;19.85;3.10;;;30.80;37.40;;;;;;4907375;29;20075;-62
2023/05/29 03:22:03;;;;;;;19.15;3.03;;;30.70;37.70;;;;;;4908673;29;20075;-61
2023/05/29 03:24:30;;;;;;;26.63;3.50;;;30.70;38.00;;;;;;4910108;29;20072;-61
2023/05/29 03:26:56;;;;;;;24.20;3.22;;;30.60;38.20;;;;;;4910386;29;20068;-62
2023/05/29 03:29:23;;;;;;;27.58;3.63;;;30.60;38.50;;;;;;4909834;29;20141;-65
2023/05/29 03:31:49;;;;;;;29.90;4.25;;;30.50;38.70;;;;;;4907686;29;20057;-59
2023/05/29 03:34:16;;;;;;;23.10;3.47;;;30.40;39.10;;;;;;4909721;29;20214;-61
2023/05/29 03:36:43;;;;;;;22.15;3.03;;;30.40;39.50;;;;;;4908934;29;20065;-61
2023/05/29 03:39:09;;;;;;;11.30;2.70;;;30.30;39.90;;;;;;4907834;29;20054;-60
2023/05/29 03:41:35;;;;;;;32.65;3.20;;;30.10;40.70;;;;;;4907637;29;20084;-61
2023/05/29 03:44:02;;;;;;;30.73;4.53;;;30.10;41.20;;;;;;4909664;29;20065;-62
2023/05/29 03:46:28;;;;;;;26.63;4.25;;;30.00;41.70;;;;;;4908651;29;20071;-59
2023/05/29 03:48:55;;;;;;;24.13;4.28;;;29.90;42.20;;;;;;4907504;29;20546;-61
2023/05/29 03:51:21;;;;;;;26.95;3.95;;;29.80;42.30;;;;;;4906274;29;20521;-60
2023/05/29 03:53:47;;;;;;;22.50;4.20;;;29.80;42.50;;;;;;4908238;29;20069;-61
2023/05/29 03:56:14;;;;;;;23.90;4.05;;;29.70;42.90;;;;;;4908893;29;20081;-61
2023/05/29 03:58:40;;;;;;;23.10;7.53;;;29.70;43.80;;;;;;4911002;29;20071;-60
2023/05/29 04:01:08;;;;;;;18.67;3.38;;;29.60;43.90;;;;;;4909786;29;20081;-61
2023/05/29 04:03:34;;;;;;;13.68;2.90;;;29.60;44.70;;;;;;4907757;29;20098;-61
2023/05/29 04:06:01;;;;;;;18.00;3.15;;;29.60;44.90;;;;;;4909018;29;20081;-60
2023/05/29 04:08:28;;;;;;;15.93;3.75;;;29.50;45.20;;;;;;4908538;29;20112;-60
2023/05/29 04:10:55;;;;;;;16.15;2.95;;;29.40;45.50;;;;;;4908265;29;20070;-59
2023/05/29 04:13:22;;;;;;;12.95;3.05;;;29.40;45.90;;;;;;4908873;29;20719;-61
2023/05/29 04:15:48;;;;;;;19.30;3.42;;;29.30;45.60;;;;;;4907516;29;20099;-60
2023/05/29 04:18:14;;;;;;;21.15;3.70;;;29.20;46.60;;;;;;4907460;29;20084;-62
2023/05/29 04:20:41;;;;;;;15.10;3.40;;;29.10;47.10;;;;;;4907253;29;20091;-60
2023/05/29 04:23:07;;;;;;;25.38;4.22;;;29.10;47.30;;;;;;4906545;29;20080;-60
2023/05/29 04:25:34;;;;;;;21.27;3.08;;;29.00;47.10;;;;;;4907056;29;20078;-60
2023/05/29 04:28:02;;;;;;;12.30;3.05;;;28.90;47.50;;;;;;4909236;29;20106;-60
2023/05/29 04:30:29;;;;;;;13.85;3.50;;;28.90;47.30;;;;;;4910373;29;20718;-61
2023/05/29 04:32:55;;;;;;;15.13;3.30;;;28.80;47.00;;;;;;4906609;29;20513;-62
2023/05/29 04:35:22;;;;;;;14.02;4.03;;;28.80;47.20;;;;;;4901813;29;20490;-69
2023/05/29 04:37:48;;;;;;;25.65;4.20;;;28.70;47.50;;;;;;4904948;29;20073;-64
2023/05/29 04:40:17;;;;;;;29.60;5.05;;;28.70;47.30;;;;;;4906729;29;20097;-62
2023/05/29 04:42:46;;;;;;;21.00;3.70;;;28.70;47.40;;;;;;4906692;29;20092;-66
2023/05/29 04:45:13;;;;;;;21.95;3.75;;;28.60;47.50;;;;;;4908200;29;20069;-66
2023/05/29 04:47:49;;;;;;;25.85;4.15;;;28.60;47.30;;;;;;4905724;29;20069;-65
2023/05/29 04:50:17;;;;;;;19.52;3.83;;;28.60;47.70;;;;;;4906992;29;20060;-63
2023/05/29 04:52:44;;;;;;;18.23;3.58;;;28.50;47.60;;;;;;4905876;29;21082;-64
2023/05/29 04:55:10;;;;;;;25.30;4.05;;;28.40;47.40;;;;;;4910942;29;20070;-63
2023/05/29 04:57:37;;;;;;;10.45;3.58;;;28.40;47.50;;;;;;4906787;29;20119;-64
2023/05/29 05:00:08;;;;;;;25.60;3.83;;;28.40;47.50;;;;;;4907681;29;20089;-60
2023/05/29 05:02:35;;;;;;;20.80;3.55;;;28.30;47.40;;;;;;4906072;29;20076;-60
2023/05/29 05:05:01;;;;;;;22.17;4.00;;;28.30;47.40;;;;;;4907633;29;20077;-61
2023/05/29 05:07:28;;;;;;;29.00;4.82;;;28.30;47.80;;;;;;4908224;29;20511;-61
2023/05/29 05:09:54;;;;;;;23.73;4.53;;;28.10;47.80;;;;;;4908277;29;20093;-67
2023/05/29 05:12:20;;;;;;;20.45;4.10;;;28.20;47.60;;;;;;4905491;29;20071;-65
2023/05/29 05:14:47;;;;;;;22.35;4.25;;;28.20;47.50;;;;;;4906652;29;20089;-65
2023/05/29 05:17:13;;;;;;;25.73;4.60;;;28.20;48.10;;;;;;4906816;29;20080;-64
2023/05/29 05:19:40;;;;;;;15.63;3.42;;;28.10;47.70;;;;;;4907793;29;20077;-65
2023/05/29 05:22:06;;;;;;;18.98;4.13;;;28.10;48.30;;;;;;4907519;29;20118;-64
2023/05/29 05:24:34;;;;;;;14.40;3.38;;;28.00;48.10;;;;;;4905771;29;20124;-63
2023/05/29 05:27:01;;;;;;;18.27;3.92;;;27.90;48.10;;;;;;4908880;29;20076;-64
2023/05/29 05:29:27;;;;;;;25.02;5.07;;;27.90;48.00;;;;;;4908518;29;20107;-65
2023/05/29 05:31:54;;;;;;;11.95;3.83;;;28.00;48.20;;;;;;4907429;29;20202;-65
2023/05/29 05:34:20;;;;;;;18.92;4.40;;;27.90;48.50;;;;;;4906639;29;20070;-68
2023/05/29 05:36:47;;;;;;;15.90;4.15;;;27.70;49.20;;;;;;4909491;29;20531;-65
2023/05/29 05:39:14;;;;;;;18.35;4.85;;;27.50;49.70;;;;;;4907134;29;20088;-67
2023/05/29 05:41:40;;;;;;;18.23;3.72;;;27.60;49.50;;;;;;4906903;29;20076;-67
2023/05/29 05:44:07;;;;;;;23.52;3.58;;;27.50;49.80;;;;;;4906734;29;20085;-68
2023/05/29 05:46:33;;;;;;;13.27;3.80;;;27.50;50.10;;;;;;4912271;29;20077;-68
2023/05/29 05:49:00;;;;;;;27.27;5.28;;;27.50;50.20;;;;;;4911382;29;20583;-67
2023/05/29 05:51:27;;;;;;;18.95;5.72;;;27.50;50.10;;;;;;4911046;29;20077;-64
2023/05/29 05:53:53;;;;;;;21.00;4.68;;;27.40;50.40;;;;;;4910594;29;20531;-64
2023/05/29 05:56:20;;;;;;;19.98;4.68;;;27.40;50.80;;;;;;4911513;29;20072;-67
2023/05/29 05:58:46;;;;;;;23.42;7.72;;;27.30;50.80;;;;;;4912721;29;20078;-66
2023/05/29 06:01:14;;;;;;;22.73;6.40;;;27.30;51.20;;;;;;4911734;29;20095;-66
2023/05/29 06:03:40;;;;;;;21.10;6.47;;;27.30;51.20;;;;;;4911622;29;20080;-65
2023/05/29 06:06:08;;;;;;;26.17;5.68;;;27.20;51.90;;;;;;4907911;29;20164;-66
2023/05/29 06:08:35;;;;;;;17.83;3.60;;;27.10;52.20;;;;;;4909830;29;20098;-64
2023/05/29 06:11:01;;;;;;;14.38;3.95;;;27.00;52.40;;;;;;4908834;29;20087;-65
2023/05/29 06:13:27;;;;;;;16.75;3.58;;;27.00;52.70;;;;;;4912554;29;20460;-66
2023/05/29 06:15:54;;;;;;;17.63;4.50;;;27.00;52.90;;;;;;4911042;29;20940;-62
2023/05/29 06:18:20;;;;;;;19.23;5.10;;;26.90;53.10;;;;;;4910300;29;20071;-64
2023/05/29 06:20:47;;;;;;;18.20;4.85;;;26.90;53.60;;;;;;4908264;29;20726;-64
2023/05/29 06:23:13;;;;;;;24.10;3.40;;;26.80;54.10;;;;;;4909192;29;20103;-65
2023/05/29 06:25:40;;;;;;;16.17;4.32;;;26.80;54.30;;;;;;4910029;29;20116;-66
2023/05/29 06:28:07;;;;;;;19.45;3.90;;;26.80;53.70;;;;;;4909385;29;20123;-65
2023/05/29 06:30:34;;;;;;;16.25;3.78;;;26.90;53.50;;;;;;4911188;29;20074;-65
2023/05/29 06:33:00;;;;;;;19.55;3.65;;;26.80;53.20;;;;;;4907705;29;20070;-65
2023/05/29 06:35:26;;;;;;;21.50;4.07;;;26.80;53.40;;;;;;4912040;29;20182;-65
2023/05/29 06:37:53;;;;;;;11.73;3.42;;;26.60;53.80;;;;;;4911347;29;20602;-65
2023/05/29 06:40:20;;;;;;;18.80;3.90;;;26.40;54.20;;;;;;4911007;29;20143;-65
2023/05/29 06:42:46;;;;;;;17.25;3.55;;;26.50;54.80;;;;;;4910151;29;20084;-64
2023/05/29 06:45:15;;;;;;;15.75;3.83;;;26.40;54.80;;;;;;4911459;29;20078;-64
2023/05/29 06:47:43;;;;;;;17.70;4.10;;;26.50;55.00;;;;;;4910047;29;20072;-64
2023/05/29 06:50:09;;;;;;;15.75;3.30;;;26.40;55.20;;;;;;4907315;29;20071;-64
2023/05/29 06:52:36;;;;;;;16.77;3.70;;;26.30;55.40;;;;;;4910721;29;20676;-65
2023/05/29 06:55:03;;;;;;;13.65;3.38;;;26.30;55.40;;;;;;4911957;29;20744;-64
2023/05/29 06:57:29;;;;;;;25.65;3.53;;;26.20;55.00;;;;;;4910011;29;20091;-65
2023/05/29 06:59:55;;;;;;;19.40;3.33;;;26.20;55.20;;;;;;4912502;29;20133;-67
2023/05/29 07:02:22;;;;;;;13.20;3.40;;;26.10;54.80;;;;;;4911142;29;20598;-64
2023/05/29 07:04:48;;;;;;;12.50;3.10;;;26.00;55.40;;;;;;4909778;29;20070;-68
2023/05/29 07:07:15;;;;;;;17.15;3.50;;;25.90;55.70;;;;;;4911771;29;20158;-65
2023/05/29 07:09:41;;;;;;;15.23;3.33;;;25.90;55.80;;;;;;4911958;29;20083;-63
2023/05/29 07:12:07;;;;;;;12.98;2.85;;;25.80;56.40;;;;;;4909795;29;20078;-64
2023/05/29 07:14:34;;;;;;;16.20;3.75;;;25.80;56.80;;;;;;4908750;29;20109;-63
2023/05/29 07:17:00;;;;;;;17.88;3.65;;;25.80;56.70;;;;;;4909749;29;20133;-63
2023/05/29 07:19:28;;;;;;;17.90;3.90;;;25.70;56.90;;;;;;4908628;29;20071;-63
2023/05/29 07:21:54;;;;;;;15.50;3.65;;;25.50;57.00;;;;;;4909364;29;20078;-64
2023/05/29 07:24:21;;;;;;;24.33;3.25;;;25.50;57.40;;;;;;4906128;29;20097;-64
2023/05/29 07:26:47;;;;;;;16.00;5.50;;;25.50;57.60;;;;;;4908094;29;20111;-63
2023/05/29 07:29:14;;;;;;;15.02;6.22;;;25.40;57.80;;;;;;4912158;29;20138;-63
2023/05/29 07:31:41;;;;;;;25.17;6.72;;;25.40;58.10;;;;;;4909363;29;20072;-66
2023/05/29 07:34:07;;;;;;;16.00;6.25;;;25.40;58.00;;;;;;4908858;29;20085;-63
2023/05/29 07:36:34;;;;;;;20.00;6.80;;;25.40;58.40;;;;;;4909401;29;20090;-63
2023/05/29 07:39:00;;;;;;;11.60;6.65;;;25.30;58.40;;;;;;4908700;29;20075;-65
2023/05/29 07:41:26;;;;;;;20.88;3.60;;;25.40;58.40;;;;;;4909683;29;20130;-61
2023/05/29 07:43:55;;;;;;;13.52;3.63;;;25.40;58.60;;;;;;4907709;29;20091;-62
2023/05/29 07:46:21;;;;;;;17.17;3.17;;;25.40;58.00;;;;;;4909650;29;20083;-64
2023/05/29 07:48:48;;;;;;;24.58;3.58;;;25.40;58.50;;;;;;4909358;29;20097;-62
2023/05/29 07:51:14;;;;;;;12.98;3.25;;;25.50;58.40;;;;;;4906796;29;20107;-64
2023/05/29 07:53:40;;;;;;;12.73;3.40;;;25.40;58.10;;;;;;4908271;29;20075;-65
2023/05/29 07:56:07;;;;;;;14.68;3.00;;;25.40;58.60;;;;;;4910485;29;20080;-63
2023/05/29 07:58:33;;;;;;;13.13;3.00;;;25.20;58.70;;;;;;4909179;29;20095;-63
2023/05/29 08:01:00;;;;;;;19.25;3.63;;;25.20;58.90;;;;;;4908844;29;20436;-61
2023/05/29 08:03:26;;;;;;;17.98;3.35;;;25.20;58.90;;;;;;4908481;29;20183;-63
2023/05/29 08:05:53;;;;;;;13.75;3.60;;;25.30;58.70;;;;;;4908204;29;20540;-64
2023/05/29 08:08:19;;;;;;;12.93;3.40;;;25.10;58.80;;;;;;4908886;29;20110;-62
2023/05/29 08:10:46;;;;;;;11.45;3.00;;;25.10;59.80;;;;;;4910915;29;20154;-63
2023/05/29 08:13:12;;;;;;;13.98;3.08;;;25.10;58.90;;;;;;4908908;29;20080;-64
2023/05/29 08:15:38;;;;;;;16.92;3.33;;;25.10;58.60;;;;;;4910030;29;20105;-64
2023/05/29 08:18:06;;;;;;;11.75;3.00;;;25.20;58.70;;;;;;4909109;29;20087;-62
2023/05/29 08:20:34;;;;;;;9.70;2.53;;;25.10;58.80;;;;;;4909072;29;20123;-62
2023/05/29 08:23:00;;;;;;;15.30;2.80;;;25.10;59.20;;;;;;4908269;29;20098;-62
2023/05/29 08:25:27;;;;;;;12.50;3.17;;;25.10;59.00;;;;;;4905097;29;20135;-63
2023/05/29 08:27:53;;;;;;;15.57;3.08;;;24.90;59.80;;;;;;4907652;29;20548;-65
2023/05/29 08:30:20;;;;;;;14.00;3.05;;;24.80;59.70;;;;;;4910754;29;20123;-63
2023/05/29 08:32:46;;;;;;;12.23;3.00;;;24.80;59.50;;;;;;4909919;29;20063;-64
2023/05/29 08:35:13;;;;;;;9.90;3.08;;;24.90;59.40;;;;;;4907765;29;20087;-64
2023/05/29 08:37:39;;;;;;;10.52;2.53;;;24.90;59.40;;;;;;4907052;29;20071;-63
2023/05/29 08:40:09;;;;;;;10.52;2.85;;;24.90;59.70;;;;;;4908361;29;20072;-62
2023/05/29 08:42:48;;;;;;;12.82;3.30;;;24.90;59.50;;;;;;4906304;29;20112;-62
2023/05/29 08:45:15;;;;;;;12.35;3.40;;;24.90;59.40;;;;;;4904266;29;20561;-62
2023/05/29 08:47:43;;;;;;;13.30;2.50;;;24.80;59.40;;;;;;4908547;29;20448;-63
2023/05/29 08:50:10;;;;;;;16.35;3.13;;;24.90;59.40;;;;;;4911597;29;20868;-64
2023/05/29 08:52:38;;;;;;;13.60;3.08;;;24.80;59.20;;;;;;4906275;29;20090;-63
2023/05/29 08:55:06;;;;;;;13.07;2.70;;;24.70;59.70;;;;;;4909213;29;20083;-64
2023/05/29 08:57:35;;;;;;;12.27;3.47;;;24.70;59.30;;;;;;4907450;29;20174;-63
2023/05/29 09:00:08;;;;;;;14.18;3.53;;;24.60;59.50;;;;;;4910821;29;20135;-61
2023/05/29 09:02:35;;;;;;;17.52;3.63;;;24.60;59.20;;;;;;4905789;29;20082;-63
2023/05/29 09:05:02;;;;;;;14.52;3.42;;;24.60;59.20;;;;;;4906835;29;20158;-63
2023/05/29 09:07:28;;;;;;;12.00;2.75;;;24.60;58.80;;;;;;4906879;29;20107;-63
2023/05/29 09:09:55;;;;;;;13.45;3.05;;;24.50;58.10;;;;;;4904389;29;20101;-62
2023/05/29 09:12:22;;;;;;;13.88;3.17;;;24.30;57.40;;;;;;4907578;29;20549;-61
2023/05/29 09:14:48;;;;;;;14.60;3.38;;;24.20;57.40;;;;;;4907469;29;20068;-63
2023/05/29 09:17:15;;;;;;;33.30;12.68;;;24.10;57.00;;;;;;4907894;29;20080;-63
2023/05/29 09:19:42;;;;;;;13.13;2.92;;;24.20;56.70;;;;;;4907392;29;20075;-62
2023/05/29 09:22:13;;;;;;;13.82;3.60;;;24.30;55.40;;;;;;4909071;29;20107;-63
2023/05/29 09:24:40;;;;;;;9.70;3.50;;;24.10;54.00;;;;;;4909683;29;20072;-63
2023/05/29 09:27:08;;;;;;;12.05;3.33;;;24.00;53.30;;;;;;4914053;29;20532;-64
2023/05/29 09:29:45;;;;;;;13.27;3.10;;;24.10;53.60;;;;;;4911888;29;20134;-63
2023/05/29 09:32:18;;;;;;;11.95;3.25;;;24.20;52.80;;;;;;4912579;29;20083;-64
2023/05/29 09:34:46;;;;;;;14.05;3.17;;;24.00;51.90;;;;;;4912655;29;20559;-63
2023/05/29 09:37:13;;;;;;;13.45;3.45;;;24.00;50.90;;;;;;4912960;29;20100;-67
2023/05/29 09:39:43;;;;;;;34.50;4.10;;;24.10;50.80;;;;;;4913058;29;20087;-64
2023/05/29 09:42:11;;;;;;;13.30;3.38;;;24.00;50.70;;;;;;4912871;29;20165;-63
2023/05/29 09:44:37;;;;;;;15.95;3.38;;;23.90;50.80;;;;;;4911271;29;20088;-63
2023/05/29 09:47:04;;;;;;;13.65;3.20;;;23.90;51.20;;;;;;4911735;29;20100;-63
2023/05/29 09:49:32;;;;;;;8.18;3.03;;;23.90;50.80;;;;;;4911410;29;20080;-63
2023/05/29 09:51:59;;;;;;;5.50;2.53;;;23.90;50.00;;;;;;4911392;29;20185;-63
2023/05/29 09:54:32;;;;;;;8.48;3.08;;;23.80;50.00;;;;;;4907505;29;20440;-64
2023/05/29 09:57:00;;;;;;;15.85;3.05;;;23.80;49.70;;;;;;4907696;29;20504;-66
2023/05/29 09:59:29;;;;;;;11.77;2.90;;;23.80;49.40;;;;;;4913133;29;20079;-63
2023/05/29 10:02:04;;;;;;;10.02;3.92;;;23.80;49.00;;;;;;4910151;29;20079;-64
2023/05/29 10:04:34;;;;;;;10.40;3.33;;;23.80;48.40;;;;;;4907318;29;20071;-63
2023/05/29 10:07:12;;;;;;;9.52;3.40;;;23.50;48.80;;;;;;4907460;29;20544;-64
2023/05/29 10:09:48;;;;;;;7.32;2.72;;;23.60;48.00;;;;;;4908386;29;20584;-64
2023/05/29 10:12:20;;;;;;;7.78;3.03;;;23.60;47.90;;;;;;4910172;29;20315;-65
2023/05/29 10:14:50;;;;;;;12.13;2.80;;;23.70;47.50;;;;;;4909153;29;20146;-62
2023/05/29 10:17:20;;;;;;;8.73;2.85;;;23.70;47.20;;;;;;4910158;29;20147;-64
2023/05/29 10:19:48;;;;;;;12.65;3.25;;;23.70;47.10;;;;;;4905592;29;20080;-63
2023/05/29 10:22:20;;;;;;;9.25;3.17;;;23.70;47.90;;;;;;4910092;29;20166;-64
2023/05/29 10:24:48;;;;;;;9.10;3.10;;;23.70;47.40;;;;;;4909680;29;20163;-60
2023/05/29 10:27:15;;;;;;;20.60;3.15;;;23.60;47.70;;;;;;4911138;29;20166;-63
2023/05/29 10:29:53;;;;;;;20.70;3.45;;;23.50;48.60;;;;;;4908386;29;20116;-63
2023/05/29 10:32:40;;;;;;;11.55;3.30;;;23.50;48.20;;;;;;4909747;29;20575;-63
2023/05/29 10:35:21;;;;;;;8.13;3.15;;;23.40;48.50;;;;;;4909002;29;20133;-63
2023/05/29 10:37:50;;;;;;;12.73;3.58;;;23.30;48.70;;;;;;4909872;29;20536;-58
2023/05/29 10:40:25;;;;;;;16.98;4.00;;;23.20;49.30;;;;;;4907599;29;20543;-63
2023/05/29 10:42:54;;;;;;;11.98;3.33;;;23.20;49.10;;;;;;4910241;29;20083;-62
2023/05/29 10:45:32;;;;;;;16.92;3.67;;;23.20;49.70;;;;;;4910151;29;20102;-63
2023/05/29 10:48:08;;;;;;;13.02;3.45;;;23.20;49.40;;;;;;4908293;29;20428;-63
2023/05/29 10:50:47;;;;;;;10.43;3.37;;;23.20;49.90;;;;;;4910854;29;20071;-63
2023/05/29 10:53:25;;;;;;;11.30;3.75;;;23.00;50.30;;;;;;4911780;29;20600;-63
2023/05/29 10:55:53;;;;;;;10.00;3.63;;;22.90;49.30;;;;;;4911258;29;20103;-64
2023/05/29 10:58:27;;;;;;;13.73;4.05;;;22.90;50.00;;;;;;4910430;29;20457;-63
2023/05/29 11:00:56;;;;;;;13.82;3.30;;;23.00;49.70;;;;;;4910666;29;20571;-63
2023/05/29 11:03:32;;;;;;;10.27;3.85;;;23.00;49.40;;;;;;4908445;29;20072;-64
2023/05/29 11:06:18;;;;;;;6.88;3.45;;;22.90;49.30;;;;;;4909907;29;20154;-63
2023/05/29 11:08:53;;;;;;;5.90;3.15;;;22.90;49.30;;;;;;4909639;29;20116;-63
2023/05/29 11:11:36;;;;;;;14.10;3.72;;;23.00;49.60;;;;;;4909097;29;20536;-64
2023/05/29 11:14:07;;;;;;;7.25;3.42;;;22.90;49.80;;;;;;4907741;29;20081;-63
2023/05/29 11:16:33;;;;;;;9.02;3.95;;;22.90;50.00;;;;;;4909236;29;20088;-63
2023/05/29 11:19:04;;;;;;;5.72;3.35;;;22.80;50.10;;;;;;4910915;29;20123;-64
2023/05/29 11:21:52;;;;;;;10.50;3.35;;;22.80;50.50;;;;;;4910471;29;20099;-64
2023/05/29 11:24:25;;;;;;;10.90;3.45;;;22.80;50.90;;;;;;4907943;29;20465;-63
2023/05/29 11:26:55;;;;;;;7.57;3.55;;;22.80;50.70;;;;;;4907708;29;20071;-63
2023/05/29 11:29:23;;;;;;;9.40;3.33;;;22.70;50.90;;;;;;4908403;29;20199;-62
2023/05/29 11:32:07;;;;;;;9.98;3.28;;;22.70;51.50;;;;;;4908716;29;20482;-61
2023/05/29 11:34:34;;;;;;;7.95;3.50;;;22.70;51.70;;;;;;4909184;29;20613;-64
2023/05/29 11:37:02;;;;;;;8.18;3.13;;;22.70;51.70;;;;;;4910497;29;20103;-65
2023/05/29 11:39:30;;;;;;;9.02;3.60;;;22.50;51.60;;;;;;4908881;29;20106;-63
2023/05/29 11:41:57;;;;;;;11.68;3.55;;;22.50;52.40;;;;;;4910644;29;20072;-63
2023/05/29 11:44:26;;;;;;;11.93;3.55;;;22.50;52.00;;;;;;4907675;29;20075;-64
2023/05/29 11:47:04;;;;;;;8.15;2.95;;;22.50;51.80;;;;;;4909334;29;20086;-65
2023/05/29 11:49:32;;;;;;;7.80;3.38;;;22.60;51.90;;;;;;4908939;29;20119;-63
2023/05/29 11:52:09;;;;;;;11.63;3.30;;;22.60;51.80;;;;;;4909114;29;20076;-62
2023/05/29 11:54:36;;;;;;;17.65;4.30;;;22.60;51.70;;;;;;4908910;29;20094;-63
2023/05/29 11:57:05;;;;;;;14.45;3.70;;;22.70;51.80;;;;;;4908075;29;20091;-62
2023/05/29 11:59:35;;;;;;;10.73;3.70;;;22.60;51.70;;;;;;4912122;29;20576;-63
2023/05/29 12:02:04;;;;;;;8.57;3.55;;;22.50;52.50;;;;;;4908364;29;20094;-62
2023/05/29 12:04:31;;;;;;;11.10;3.55;;;22.50;52.20;;;;;;4907325;29;20188;-62
2023/05/29 12:06:57;;;;;;;8.45;3.40;;;22.50;52.30;;;;;;4906894;29;20096;-63
2023/05/29 12:09:27;;;;;;;12.43;3.67;;;22.40;52.40;;;;;;4908462;29;20080;-63
2023/05/29 12:12:04;;;;;;;8.18;3.65;;;22.40;52.50;;;;;;4907368;29;20559;-63
2023/05/29 12:14:30;;;;;;;12.25;3.70;;;22.40;52.80;;;;;;4907682;29;20139;-62
2023/05/29 12:16:57;;;;;;;7.38;3.72;;;22.40;53.10;;;;;;4908496;29;20076;-63
2023/05/29 12:19:24;;;;;;;8.05;4.03;;;22.30;53.10;;;;;;4908756;29;20084;-63
2023/05/29 12:21:50;;;;;;;9.50;3.85;;;22.30;53.30;;;;;;4907017;29;20082;-63
2023/05/29 12:24:19;;;;;;;11.73;4.13;;;22.30;53.60;;;;;;4908252;29;20583;-63
2023/05/29 12:26:49;;;;;;;14.73;3.88;;;22.30;53.60;;;;;;4908346;29;20171;-62
2023/05/29 12:29:15;;;;;;;9.15;3.95;;;22.30;53.80;;;;;;4907718;29;20127;-64
2023/05/29 12:31:42;;;;;;;11.82;3.85;;;22.30;54.00;;;;;;4908224;29;20537;-64
2023/05/29 12:34:11;;;;;;;10.40;3.90;;;22.30;53.90;;;;;;4905676;29;20076;-62
2023/05/29 12:36:41;;;;;;;11.45;3.58;;;22.30;54.10;;;;;;4909613;29;20087;-63
2023/05/29 12:39:11;;;;;;;10.80;3.72;;;22.00;54.40;;;;;;4907534;29;20088;-62
2023/05/29 12:41:39;;;;;;;10.32;4.45;;;21.90;54.90;;;;;;4906045;29;20078;-64
2023/05/29 12:44:08;;;;;;;9.05;3.53;;;22.00;55.30;;;;;;4905451;29;20091;-63